FW7738 Weather Reports


time (UTC)temp
C
wind
direction
speed
KPH
gust
KPH
rain 1hr
cm
rain 24hr
cm
rain mn
cm
humidity
%
barometer
mb
20221203055519 8 289 3.2 6.4 0.00 0.00 0.00 71 1008.8
20221203054535 8 298 3.2 6.4 0.00 0.00 0.00 71 1008.7
20221203053530 8 294 3.2 6.4 0.00 0.00 0.00 71 1008.6
20221203052545 8 307 4.8 11.3 0.00 0.00 0.00 70 1008.5
20221203051521 8 285 3.2 6.4 0.00 0.00 0.00 71 1008.7
20221203050516 8 282 6.4 11.3 0.00 0.00 0.00 71 1008.7
20221203045531 8 286 6.4 11.3 0.00 0.00 0.00 72 1008.9
20221203044527 8 274 6.4 11.3 0.00 0.00 0.00 72 1008.9
20221203043522 8 278 6.4 12.9 0.00 0.00 0.00 72 1008.9
20221203042518 8 289 6.4 11.3 0.00 0.00 0.00 72 1009.0
20221203041534 8 274 6.4 12.9 0.00 0.00 0.00 72 1009.0
20221203040528 8 283 6.4 12.9 0.00 0.00 0.00 72 1009.0
20221203035524 8 293 6.4 12.9 0.00 0.00 0.00 72 1009.1
20221203034519 8 285 6.4 11.3 0.00 0.00 0.00 73 1009.1
20221203033535 8 282 6.4 12.9 0.00 0.00 0.00 73 1009.1
20221203032529 8 283 6.4 14.5 0.00 0.00 0.00 73 1009.2
20221203031525 8 281 8.0 14.5 0.00 0.00 0.00 73 1009.2
20221203030520 8 280 6.4 12.9 0.00 0.00 0.00 72 1009.3
20221203025535 8 282 6.4 12.9 0.00 0.00 0.00 72 1009.4
20221203024530 8 277 6.4 11.3 0.00 0.00 0.00 73 1009.5
20221203023525 8 283 6.4 12.9 0.00 0.00 0.00 73 1009.5
20221203022540 8 282 8.0 16.1 0.00 0.00 0.00 73 1009.7
20221203021636 8 285 6.4 11.3 0.00 0.00 0.00 73 1009.8
20221203020532 8 283 9.7 14.5 0.00 0.00 0.00 73 1009.8
20221203015547 8 277 6.4 12.9 0.00 0.00 0.00 73 1010.0
20221203014522 8 284 9.7 14.5 0.00 0.00 0.00 73 1010.0
20221203013538 8 274 8.0 12.9 0.00 0.00 0.00 73 1010.1
20221203012533 8 275 9.7 14.5 0.00 0.00 0.00 73 1010.2
20221203011528 8 274 8.0 14.5 0.00 0.00 0.00 72 1010.2
20221203010524 8 286 8.0 14.5 0.00 0.00 0.00 70 1010.2
20221203005519 9 267 6.4 11.3 0.00 0.00 0.00 68 1010.2
20221203004535 9 284 8.0 12.9 0.00 0.00 0.00 67 1010.2
20221203003530 9 293 8.0 12.9 0.00 0.00 0.00 68 1010.3
20221203002525 9 285 11.3 16.1 0.00 0.00 0.00 68 1010.4
20221203001541 9 290 9.7 16.1 0.00 0.00 0.00 69 1010.6
20221203000516 9 280 6.4 9.7 0.00 0.00 0.00 70 1010.7
20221202235533 9 284 8.0 14.5 0.00 0.00 0.00 70 1010.8
20221202234528 9 278 6.4 11.3 0.00 0.00 0.00 70 1010.8
20221202233523 9 272 6.4 9.7 0.00 0.00 0.00 70 1010.8
20221202232518 10 275 6.4 11.3 0.00 0.00 0.00 69 1011.0
20221202231534 10 278 4.8 9.7 0.00 0.00 0.00 67 1011.1
20221202230529 10 275 4.8 6.4 0.00 0.00 0.00 65 1011.2
20221202225524 11 280 4.8 9.7 0.00 0.00 0.00 64 1011.2
20221202224519 11 307 3.2 4.8 0.00 0.03 0.00 62 1011.3
20221202223555 11 308 4.8 6.4 0.00 0.05 0.00 61 1011.2
20221202222530 11 309 4.8 6.4 0.00 0.05 0.00 61 1011.4
20221202221525 11 317 4.8 6.4 0.00 0.05 0.00 61 1011.4
20221202220521 11 320 4.8 11.3 0.00 0.05 0.00 62 1011.4
20221202215516 11 329 8.0 14.5 0.00 0.05 0.00 62 1011.4
20221202214532 11 324 8.0 14.5 0.00 0.08 0.00 62 1011.4
20221202213547 11 324 8.0 14.5 0.00 0.08 0.00 61 1011.4
20221202212522 11 340 6.4 11.3 0.00 0.08 0.00 61 1011.5
20221202211517 11 357 6.4 11.3 0.00 0.08 0.00 61 1011.4
20221202210533 11 2 8.0 12.9 0.00 0.08 0.00 61 1011.5
20221202205528 11 8 6.4 12.9 0.00 0.08 0.00 61 1011.5
20221202204524 11 9 9.7 12.9 0.00 0.08 0.00 62 1011.2
20221202203539 11 4 6.4 12.9 0.00 0.08 0.00 63 1011.4
20221202202534 11 12 8.0 12.9 0.00 0.08 0.00 62 1011.4
20221202201530 11 21 8.0 12.9 0.00 0.08 0.00 63 1011.3
20221202200546 11 15 8.0 12.9 0.00 0.08 0.00 65 1011.5
20221202195521 11 23 6.4 11.3 0.00 0.08 0.00 66 1011.5
20221202194516 12 20 8.0 16.1 0.00 0.08 0.00 66 1011.5
20221202193532 12 28 6.4 14.5 0.00 0.08 0.00 66 1011.6
20221202192527 12 28 9.7 17.7 0.00 0.08 0.00 66 1011.6
20221202191522 12 33 6.4 14.5 0.00 0.08 0.00 67 1011.6
20221202190518 12 39 4.8 9.7 0.00 0.08 0.00 67 1011.7
20221202185554 12 25 6.4 12.9 0.00 0.08 0.00 68 1011.7
20221202184528 12 34 4.8 9.7 0.00 0.08 0.00 68 1011.7
20221202183524 11 34 4.8 9.7 0.00 0.08 0.00 69 1011.6
20221202182520 11 14 6.4 11.3 0.00 0.08 0.00 68 1011.6
20221202181535 12 22 6.4 12.9 0.00 0.08 0.00 68 1011.6
20221202180531 12 26 6.4 14.5 0.00 0.08 0.00 68 1011.6
20221202175526 12 36 4.8 11.3 0.00 0.08 0.00 68 1011.6
20221202174602 12 31 8.0 14.5 0.00 0.08 0.00 68 1011.6
20221202173516 12 29 6.4 11.3 0.00 0.08 0.00 68 1011.6
20221202172531 12 35 6.4 12.9 0.00 0.08 0.00 67 1011.7
20221202171527 12 50 8.0 16.1 0.00 0.08 0.00 66 1011.6
20221202170522 12 46 4.8 12.9 0.00 0.08 0.00 66 1011.7
20221202165518 12 54 6.4 12.9 0.00 0.08 0.00 64 1011.7
20221202164533 13 52 8.0 17.7 0.00 0.08 0.00 63 1011.7
20221202163529 13 42 8.0 16.1 0.00 0.08 0.00 63 1011.7
20221202162524 13 48 6.4 14.5 0.00 0.08 0.00 63 1011.7
20221202161520 13 53 9.7 20.9 0.00 0.08 0.00 62 1011.6
20221202160516 13 55 6.4 14.5 0.00 0.08 0.00 62 1011.7
20221202155531 13 64 9.7 16.1 0.00 0.08 0.00 60 1011.5
20221202154527 13 60 8.0 16.1 0.00 0.08 0.00 58 1011.5
20221202153523 13 53 6.4 14.5 0.00 0.08 0.00 58 1011.4
20221202152538 13 57 9.7 17.7 0.00 0.08 0.00 58 1011.3
20221202151533 13 50 12.9 29.0 0.00 0.08 0.00 56 1011.3
20221202150528 13 50 16.1 30.6 0.00 0.08 0.00 56 1011.3
20221202145544 13 51 12.9 24.1 0.00 0.08 0.00 58 1011.3
20221202144519 13 49 12.9 25.7 0.00 0.08 0.00 58 1011.3
20221202143535 13 56 9.7 22.5 0.00 0.08 0.00 58 1011.4
20221202142550 13 64 9.7 17.7 0.00 0.08 0.00 57 1011.5
20221202141526 13 65 9.7 22.5 0.00 0.08 0.00 57 1011.6
20221202140521 14 68 11.3 24.1 0.00 0.08 0.00 55 1011.6
20221202135516 14 60 8.0 20.9 0.00 0.08 0.00 56 1011.6
20221202134531 14 58 14.5 29.0 0.00 0.08 0.00 55 1011.7
20221202133527 14 59 14.5 30.6 0.00 0.08 0.00 54 1011.8
20221202132542 14 64 14.5 29.0 0.00 0.08 0.00 54 1011.9
20221202131517 15 55 9.7 22.5 0.00 0.08 0.00 54 1012.1
20221202130533 15 46 14.5 27.4 0.00 0.08 0.00 54 1012.3
20221202125529 14 60 11.3 27.4 0.00 0.08 0.00 54 1012.4
20221202124524 14 49 20.9 41.8 0.00 0.08 0.00 54 1012.6
20221202122535 14 49 16.1 35.4 0.00 0.08 0.00 54 1012.8
20221202121550 14 63 14.5 29.0 0.00 0.08 0.00 55 1012.9
20221202120607 13 49 16.1 33.8 0.00 0.08 0.00 55 1013.2
20221202115522 13 45 17.7 35.4 0.00 0.08 0.00 56 1013.3
20221202114517 13 35 17.7 30.6 0.00 0.08 0.00 56 1013.6
20221202113532 13 39 14.5 29.0 0.00 0.08 0.00 57 1013.6
20221202112528 13 52 17.7 33.8 0.00 0.08 0.00 57 1013.9
20221202111522 13 56 14.5 35.4 0.00 0.08 0.00 58 1014.1
20221202110518 13 67 12.9 27.4 0.00 0.08 0.00 58 1014.1
20221202105553 13 53 12.9 29.0 0.00 0.08 0.00 59 1014.2
20221202104529 13 54 12.9 27.4 0.00 0.08 0.00 59 1014.3
20221202103525 12 44 14.5 29.0 0.00 0.08 0.00 59 1014.5
20221202102540 12 47 16.1 33.8 0.00 0.08 0.00 60 1014.6
20221202101535 12 41 17.7 33.8 0.00 0.08 0.00 59 1014.5
20221202100530 12 47 16.1 30.6 0.00 0.08 0.00 60 1014.7
20221202095526 12 49 19.3 40.2 0.00 0.08 0.00 60 1014.5
20221202094521 12 30 16.1 25.7 0.00 0.08 0.00 61 1014.5
20221202093516 12 35 14.5 25.7 0.00 0.08 0.00 61 1014.5
20221202092552 12 42 14.5 33.8 0.00 0.08 0.00 62 1014.4
20221202091527 12 23 14.5 27.4 0.00 0.08 0.00 62 1014.4
20221202090522 12 42 19.3 37.0 0.00 0.08 0.00 61 1014.3
20221202085538 11 38 12.9 27.4 0.00 0.08 0.00 63 1014.4
20221202084554 11 37 11.3 24.1 0.00 0.08 0.00 64 1014.4
20221202083529 11 29 11.3 20.9 0.00 0.08 0.00 65 1014.4
20221202082525 11 31 12.9 24.1 0.00 0.08 0.00 65 1014.3
20221202081520 11 35 11.3 20.9 0.00 0.08 0.00 65 1014.4
20221202080535 11 26 14.5 27.4 0.00 0.08 0.00 66 1014.5
20221202075611 11 29 11.3 20.9 0.00 0.08 0.00 66 1014.4
20221202074526 11 32 9.7 16.1 0.00 0.08 0.00 67 1014.4
20221202073521 11 29 12.9 24.1 0.00 0.08 0.00 67 1014.3
20221202072517 11 33 9.7 22.5 0.00 0.08 0.00 68 1014.3
20221202071533 11 27 9.7 22.5 0.00 0.08 0.00 68 1014.4
20221202070528 11 29 9.7 16.1 0.00 0.08 0.00 68 1014.4
20221202065544 11 31 9.7 17.7 0.00 0.08 0.00 68 1014.3
20221202064519 11 26 9.7 17.7 0.00 0.08 0.00 69 1014.2
20221202063555 11 34 8.0 16.1 0.00 0.08 0.00 69 1014.1
20221202062530 11 16 11.3 17.7 0.00 0.08 0.00 69 1014.2
20221202061525 11 27 9.7 16.1 0.00 0.08 0.00 68 1014.2
20221202060540 11 14 9.7 17.7 0.00 0.08 0.00 68 1014.2